sensor_id;sensor_type;location;lat;lon;timestamp;pressure;altitude;pressure_sealevel;temperature;humidity
21644;BME280;10983;51.982;9.226;2022-08-01T00:02:09;100100.84;;;19.45;100.00
21644;BME280;10983;51.982;9.226;2022-08-01T00:04:37;100111.03;;;19.48;100.00
21644;BME280;10983;51.982;9.226;2022-08-01T00:07:05;100118.34;;;19.48;100.00
21644;BME280;10983;51.982;9.226;2022-08-01T00:09:32;100114.53;;;19.49;100.00
21644;BME280;10983;51.982;9.226;2022-08-01T00:12:00;100119.69;;;19.50;100.00
21644;BME280;10983;51.982;9.226;2022-08-01T00:14:29;100112.66;;;19.49;100.00
21644;BME280;10983;51.982;9.226;2022-08-01T00:16:58;100123.66;;;19.53;100.00
21644;BME280;10983;51.982;9.226;2022-08-01T00:19:32;100123.66;;;19.53;100.00
21644;BME280;10983;51.982;9.226;2022-08-01T00:21:59;100123.66;;;19.53;100.00
21644;BME280;10983;51.982;9.226;2022-08-01T00:24:27;100123.66;;;19.53;100.00
21644;BME280;10983;51.982;9.226;2022-08-01T00:26:54;100123.66;;;19.53;100.00
21644;BME280;10983;51.982;9.226;2022-08-01T00:29:22;100123.66;;;19.53;100.00
21644;BME280;10983;51.982;9.226;2022-08-01T00:32:11;100119.88;;;19.54;100.00
21644;BME280;10983;51.982;9.226;2022-08-01T00:34:38;100119.88;;;19.54;100.00
21644;BME280;10983;51.982;9.226;2022-08-01T00:37:07;100119.88;;;19.54;100.00
21644;BME280;10983;51.982;9.226;2022-08-01T00:39:35;100119.88;;;19.54;100.00
21644;BME280;10983;51.982;9.226;2022-08-01T00:42:06;100121.78;;;19.53;100.00
21644;BME280;10983;51.982;9.226;2022-08-01T00:44:36;100124.59;;;19.43;100.00
21644;BME280;10983;51.982;9.226;2022-08-01T00:47:04;100123.47;;;19.49;100.00
21644;BME280;10983;51.982;9.226;2022-08-01T00:49:34;100127.22;;;19.48;100.00
21644;BME280;10983;51.982;9.226;2022-08-01T00:52:02;100132.06;;;19.51;100.00
21644;BME280;10983;51.982;9.226;2022-08-01T00:54:31;100133.72;;;19.47;100.00
21644;BME280;10983;51.982;9.226;2022-08-01T00:56:59;100139.41;;;19.46;100.00
21644;BME280;10983;51.982;9.226;2022-08-01T00:59:27;100133.50;;;19.44;100.00
21644;BME280;10983;51.982;9.226;2022-08-01T01:01:57;100135.91;;;19.45;100.00
21644;BME280;10983;51.982;9.226;2022-08-01T01:04:26;100132.19;;;19.41;100.00
21644;BME280;10983;51.982;9.226;2022-08-01T01:06:58;100135.75;;;19.37;100.00
21644;BME280;10983;51.982;9.226;2022-08-01T01:09:35;100133.59;;;19.34;100.00
21644;BME280;10983;51.982;9.226;2022-08-01T01:12:15;100140.31;;;19.36;100.00
21644;BME280;10983;51.982;9.226;2022-08-01T01:14:51;100134.69;;;19.33;100.00
21644;BME280;10983;51.982;9.226;2022-08-01T01:17:27;100131.72;;;19.34;100.00
21644;BME280;10983;51.982;9.226;2022-08-01T01:20:16;100148.19;;;19.33;100.00
21644;BME280;10983;51.982;9.226;2022-08-01T01:22:57;100139.53;;;19.36;100.00
21644;BME280;10983;51.982;9.226;2022-08-01T01:25:43;100137.31;;;19.38;100.00
21644;BME280;10983;51.982;9.226;2022-08-01T01:28:17;100144.28;;;19.44;100.00
21644;BME280;10983;51.982;9.226;2022-08-01T01:30:51;100142.22;;;19.36;100.00
21644;BME280;10983;51.982;9.226;2022-08-01T01:33:21;100139.47;;;19.41;100.00
21644;BME280;10983;51.982;9.226;2022-08-01T01:35:52;100141.94;;;19.37;100.00
21644;BME280;10983;51.982;9.226;2022-08-01T01:38:26;100150.81;;;19.38;100.00
21644;BME280;10983;51.982;9.226;2022-08-01T01:40:55;100143.59;;;19.33;100.00
21644;BME280;10983;51.982;9.226;2022-08-01T01:43:24;100147.63;;;19.36;100.00
21644;BME280;10983;51.982;9.226;2022-08-01T01:46:02;100148.97;;;19.33;100.00
21644;BME280;10983;51.982;9.226;2022-08-01T01:48:31;100151.38;;;19.35;100.00
21644;BME280;10983;51.982;9.226;2022-08-01T01:51:01;100139.84;;;19.29;100.00
21644;BME280;10983;51.982;9.226;2022-08-01T01:53:32;100139.84;;;19.29;100.00
21644;BME280;10983;51.982;9.226;2022-08-01T01:56:01;100139.84;;;19.29;100.00
21644;BME280;10983;51.982;9.226;2022-08-01T01:58:33;100069.84;;;18.91;100.00
21644;BME280;10983;51.982;9.226;2022-08-01T02:01:03;100069.84;;;18.91;100.00
21644;BME280;10983;51.982;9.226;2022-08-01T02:03:40;100147.78;;;19.44;100.00
21644;BME280;10983;51.982;9.226;2022-08-01T02:06:08;100152.97;;;19.41;100.00
21644;BME280;10983;51.982;9.226;2022-08-01T02:08:37;100152.44;;;19.39;100.00
21644;BME280;10983;51.982;9.226;2022-08-01T02:11:07;100155.38;;;19.42;100.00
21644;BME280;10983;51.982;9.226;2022-08-01T02:13:52;100155.66;;;19.41;100.00
21644;BME280;10983;51.982;9.226;2022-08-01T02:16:24;100156.44;;;19.41;100.00
21644;BME280;10983;51.982;9.226;2022-08-01T02:18:52;100154.84;;;19.40;100.00
21644;BME280;10983;51.982;9.226;2022-08-01T02:21:25;100151.34;;;19.40;100.00
21644;BME280;10983;51.982;9.226;2022-08-01T02:23:53;100146.78;;;19.35;100.00
21644;BME280;10983;51.982;9.226;2022-08-01T02:26:23;100150.59;;;19.34;100.00
21644;BME280;10983;51.982;9.226;2022-08-01T02:28:56;100160.03;;;19.37;100.00
21644;BME280;10983;51.982;9.226;2022-08-01T02:31:26;100163.38;;;19.24;100.00
21644;BME280;10983;51.982;9.226;2022-08-01T02:34:03;100159.88;;;19.23;100.00
21644;BME280;10983;51.982;9.226;2022-08-01T02:36:33;100164.44;;;19.23;100.00
21644;BME280;10983;51.982;9.226;2022-08-01T02:39:03;100158.78;;;19.24;100.00
21644;BME280;10983;51.982;9.226;2022-08-01T02:41:38;100158.78;;;19.24;100.00
21644;BME280;10983;51.982;9.226;2022-08-01T02:44:08;100158.78;;;19.24;100.00
21644;BME280;10983;51.982;9.226;2022-08-01T02:46:41;100161.72;;;19.28;100.00
21644;BME280;10983;51.982;9.226;2022-08-01T02:49:12;100161.72;;;19.28;100.00
21644;BME280;10983;51.982;9.226;2022-08-01T02:51:43;100161.72;;;19.28;100.00
21644;BME280;10983;51.982;9.226;2022-08-01T02:54:11;100161.72;;;19.28;100.00
21644;BME280;10983;51.982;9.226;2022-08-01T02:56:39;100161.72;;;19.28;100.00
21644;BME280;10983;51.982;9.226;2022-08-01T02:59:12;100161.72;;;19.28;100.00
21644;BME280;10983;51.982;9.226;2022-08-01T03:01:42;100161.72;;;19.28;100.00
21644;BME280;10983;51.982;9.226;2022-08-01T03:04:17;100161.72;;;19.28;100.00
21644;BME280;10983;51.982;9.226;2022-08-01T03:06:48;100161.72;;;19.28;100.00
21644;BME280;10983;51.982;9.226;2022-08-01T03:09:16;100161.72;;;19.28;100.00
21644;BME280;10983;51.982;9.226;2022-08-01T03:11:45;100161.72;;;19.28;100.00
21644;BME280;10983;51.982;9.226;2022-08-01T03:14:15;100161.72;;;19.28;100.00
21644;BME280;10983;51.982;9.226;2022-08-01T03:16:56;100161.72;;;19.28;100.00
21644;BME280;10983;51.982;9.226;2022-08-01T03:19:26;100161.72;;;19.28;100.00
21644;BME280;10983;51.982;9.226;2022-08-01T03:21:55;100161.72;;;19.28;100.00
21644;BME280;10983;51.982;9.226;2022-08-01T03:24:25;100161.72;;;19.28;100.00
21644;BME280;10983;51.982;9.226;2022-08-01T03:26:55;100161.72;;;19.28;100.00
21644;BME280;10983;51.982;9.226;2022-08-01T03:29:25;100161.72;;;19.28;100.00
21644;BME280;10983;51.982;9.226;2022-08-01T03:31:59;100161.72;;;19.28;100.00
21644;BME280;10983;51.982;9.226;2022-08-01T03:34:31;100161.72;;;19.28;100.00
21644;BME280;10983;51.982;9.226;2022-08-01T03:39:33;100161.72;;;19.28;100.00
21644;BME280;10983;51.982;9.226;2022-08-01T03:42:07;65387.91;;;-139.23;100.00
21644;BME280;10983;51.982;9.226;2022-08-01T03:44:37;65387.91;;;-139.23;100.00
21644;BME280;10983;51.982;9.226;2022-08-01T03:47:09;65387.91;;;-139.23;100.00
21644;BME280;10983;51.982;9.226;2022-08-01T03:49:41;65387.91;;;-139.23;100.00
21644;BME280;10983;51.982;9.226;2022-08-01T03:52:10;65387.91;;;-139.23;100.00
21644;BME280;10983;51.982;9.226;2022-08-01T03:54:41;65387.91;;;-139.23;100.00
21644;BME280;10983;51.982;9.226;2022-08-01T03:57:10;65387.91;;;-139.23;100.00
21644;BME280;10983;51.982;9.226;2022-08-01T04:00:02;65387.91;;;-139.23;100.00
21644;BME280;10983;51.982;9.226;2022-08-01T04:02:34;65387.91;;;-139.23;100.00
21644;BME280;10983;51.982;9.226;2022-08-01T04:05:03;65387.91;;;-139.23;100.00
21644;BME280;10983;51.982;9.226;2022-08-01T04:07:32;65387.91;;;-139.23;100.00
21644;BME280;10983;51.982;9.226;2022-08-01T04:10:02;65387.91;;;-139.23;100.00
21644;BME280;10983;51.982;9.226;2022-08-01T04:12:30;65387.91;;;-139.23;100.00
21644;BME280;10983;51.982;9.226;2022-08-01T04:14:58;65387.91;;;-139.23;100.00
21644;BME280;10983;51.982;9.226;2022-08-01T04:17:26;65387.91;;;-139.23;100.00
21644;BME280;10983;51.982;9.226;2022-08-01T04:19:55;65387.91;;;-139.23;100.00
21644;BME280;10983;51.982;9.226;2022-08-01T04:22:23;65387.91;;;-139.23;100.00
21644;BME280;10983;51.982;9.226;2022-08-01T04:24:53;65387.91;;;-139.23;100.00
21644;BME280;10983;51.982;9.226;2022-08-01T04:27:28;65387.91;;;-139.23;100.00
21644;BME280;10983;51.982;9.226;2022-08-01T04:30:17;65387.91;;;-139.23;100.00
21644;BME280;10983;51.982;9.226;2022-08-01T04:32:47;65387.91;;;-139.23;100.00
21644;BME280;10983;51.982;9.226;2022-08-01T04:35:18;65387.91;;;-139.23;100.00
21644;BME280;10983;51.982;9.226;2022-08-01T04:38:07;65387.91;;;-139.23;100.00
21644;BME280;10983;51.982;9.226;2022-08-01T04:40:36;65387.91;;;-139.23;100.00
21644;BME280;10983;51.982;9.226;2022-08-01T04:43:03;65387.91;;;-139.23;100.00
21644;BME280;10983;51.982;9.226;2022-08-01T04:45:33;65387.91;;;-139.23;100.00
21644;BME280;10983;51.982;9.226;2022-08-01T04:48:04;65387.91;;;-139.23;100.00
21644;BME280;10983;51.982;9.226;2022-08-01T04:50:34;65387.91;;;-139.23;100.00
21644;BME280;10983;51.982;9.226;2022-08-01T04:53:02;65387.91;;;-139.23;100.00
21644;BME280;10983;51.982;9.226;2022-08-01T04:55:30;65387.91;;;-139.23;100.00
21644;BME280;10983;51.982;9.226;2022-08-01T04:57:58;65387.91;;;-139.23;100.00
21644;BME280;10983;51.982;9.226;2022-08-01T05:00:26;65387.91;;;-139.23;100.00
21644;BME280;10983;51.982;9.226;2022-08-01T05:02:56;65387.91;;;-139.23;100.00
21644;BME280;10983;51.982;9.226;2022-08-01T05:05:23;65387.91;;;-139.23;100.00
21644;BME280;10983;51.982;9.226;2022-08-01T05:07:53;65387.91;;;-139.23;100.00
21644;BME280;10983;51.982;9.226;2022-08-01T05:10:24;65387.91;;;-139.23;100.00
21644;BME280;10983;51.982;9.226;2022-08-01T05:12:57;65387.91;;;-139.23;100.00
21644;BME280;10983;51.982;9.226;2022-08-01T05:15:24;65387.91;;;-139.23;100.00
21644;BME280;10983;51.982;9.226;2022-08-01T05:17:53;65387.91;;;-139.23;100.00
21644;BME280;10983;51.982;9.226;2022-08-01T05:20:21;65387.91;;;-139.23;100.00
21644;BME280;10983;51.982;9.226;2022-08-01T05:22:48;65387.91;;;-139.23;100.00
21644;BME280;10983;51.982;9.226;2022-08-01T05:25:19;65387.91;;;-139.23;100.00
21644;BME280;10983;51.982;9.226;2022-08-01T05:28:07;65387.91;;;-139.23;100.00
21644;BME280;10983;51.982;9.226;2022-08-01T05:30:38;65387.91;;;-139.23;100.00
21644;BME280;10983;51.982;9.226;2022-08-01T05:33:06;65387.91;;;-139.23;100.00
21644;BME280;10983;51.982;9.226;2022-08-01T05:35:33;65387.91;;;-139.23;100.00
21644;BME280;10983;51.982;9.226;2022-08-01T05:38:14;65387.91;;;-139.23;100.00
21644;BME280;10983;51.982;9.226;2022-08-01T05:40:44;65387.91;;;-139.23;100.00
21644;BME280;10983;51.982;9.226;2022-08-01T05:43:13;65387.91;;;-139.23;100.00
21644;BME280;10983;51.982;9.226;2022-08-01T05:45:41;65387.91;;;-139.23;100.00
21644;BME280;10983;51.982;9.226;2022-08-01T05:48:12;65387.91;;;-139.23;100.00
21644;BME280;10983;51.982;9.226;2022-08-01T05:50:41;65387.91;;;-139.23;100.00
21644;BME280;10983;51.982;9.226;2022-08-01T05:53:10;65387.91;;;-139.23;100.00
21644;BME280;10983;51.982;9.226;2022-08-01T05:55:38;65387.91;;;-139.23;100.00
21644;BME280;10983;51.982;9.226;2022-08-01T05:58:08;65387.91;;;-139.23;100.00
21644;BME280;10983;51.982;9.226;2022-08-01T06:00:38;65387.91;;;-139.23;100.00
21644;BME280;10983;51.982;9.226;2022-08-01T06:03:05;65387.91;;;-139.23;100.00
21644;BME280;10983;51.982;9.226;2022-08-01T06:05:33;65387.91;;;-139.23;100.00
21644;BME280;10983;51.982;9.226;2022-08-01T06:08:00;65387.91;;;-139.23;100.00
21644;BME280;10983;51.982;9.226;2022-08-01T06:10:28;65387.91;;;-139.23;100.00
21644;BME280;10983;51.982;9.226;2022-08-01T06:12:57;65387.91;;;-139.23;100.00
21644;BME280;10983;51.982;9.226;2022-08-01T06:15:29;65387.91;;;-139.23;100.00
21644;BME280;10983;51.982;9.226;2022-08-01T06:17:57;65387.91;;;-139.23;100.00
21644;BME280;10983;51.982;9.226;2022-08-01T06:20:25;65387.91;;;-139.23;100.00
21644;BME280;10983;51.982;9.226;2022-08-01T06:22:52;65387.91;;;-139.23;100.00
21644;BME280;10983;51.982;9.226;2022-08-01T06:25:22;65387.91;;;-139.23;100.00
21644;BME280;10983;51.982;9.226;2022-08-01T06:27:51;65387.91;;;-139.23;100.00
21644;BME280;10983;51.982;9.226;2022-08-01T06:30:20;65387.91;;;-139.23;100.00
21644;BME280;10983;51.982;9.226;2022-08-01T06:32:49;65387.91;;;-139.23;100.00
21644;BME280;10983;51.982;9.226;2022-08-01T06:35:18;65387.91;;;-139.23;100.00
21644;BME280;10983;51.982;9.226;2022-08-01T06:37:47;65387.91;;;-139.23;100.00
21644;BME280;10983;51.982;9.226;2022-08-01T06:40:15;65387.91;;;-139.23;100.00
21644;BME280;10983;51.982;9.226;2022-08-01T06:42:45;65387.91;;;-139.23;100.00
21644;BME280;10983;51.982;9.226;2022-08-01T06:45:13;65387.91;;;-139.23;100.00
21644;BME280;10983;51.982;9.226;2022-08-01T06:47:42;65387.91;;;-139.23;100.00
21644;BME280;10983;51.982;9.226;2022-08-01T06:50:19;65387.91;;;-139.23;100.00
21644;BME280;10983;51.982;9.226;2022-08-01T06:52:47;65387.91;;;-139.23;100.00
21644;BME280;10983;51.982;9.226;2022-08-01T06:55:15;65387.91;;;-139.23;100.00
21644;BME280;10983;51.982;9.226;2022-08-01T06:57:47;65387.91;;;-139.23;100.00
21644;BME280;10983;51.982;9.226;2022-08-01T07:00:18;65387.91;;;-139.23;100.00
21644;BME280;10983;51.982;9.226;2022-08-01T07:02:49;65387.91;;;-139.23;100.00
21644;BME280;10983;51.982;9.226;2022-08-01T07:05:18;65387.91;;;-139.23;100.00
21644;BME280;10983;51.982;9.226;2022-08-01T07:07:46;65387.91;;;-139.23;100.00
21644;BME280;10983;51.982;9.226;2022-08-01T07:10:13;65387.91;;;-139.23;100.00
21644;BME280;10983;51.982;9.226;2022-08-01T07:12:41;65387.91;;;-139.23;100.00
21644;BME280;10983;51.982;9.226;2022-08-01T07:15:09;65387.91;;;-139.23;100.00
21644;BME280;10983;51.982;9.226;2022-08-01T07:17:38;65387.91;;;-139.23;100.00
21644;BME280;10983;51.982;9.226;2022-08-01T07:20:08;65387.91;;;-139.23;100.00
21644;BME280;10983;51.982;9.226;2022-08-01T07:22:40;65387.91;;;-139.23;100.00
21644;BME280;10983;51.982;9.226;2022-08-01T07:25:08;65387.91;;;-139.23;100.00
21644;BME280;10983;51.982;9.226;2022-08-01T07:27:36;65387.91;;;-139.23;100.00
21644;BME280;10983;51.982;9.226;2022-08-01T07:30:05;65387.91;;;-139.23;100.00
21644;BME280;10983;51.982;9.226;2022-08-01T07:32:33;65387.91;;;-139.23;100.00
21644;BME280;10983;51.982;9.226;2022-08-01T07:35:03;65387.91;;;-139.23;100.00
21644;BME280;10983;51.982;9.226;2022-08-01T07:37:42;65387.91;;;-139.23;100.00
21644;BME280;10983;51.982;9.226;2022-08-01T07:40:15;65387.91;;;-139.23;100.00
21644;BME280;10983;51.982;9.226;2022-08-01T07:42:43;65387.91;;;-139.23;100.00
21644;BME280;10983;51.982;9.226;2022-08-01T07:45:12;65387.91;;;-139.23;100.00
21644;BME280;10983;51.982;9.226;2022-08-01T07:47:44;65387.91;;;-139.23;100.00
21644;BME280;10983;51.982;9.226;2022-08-01T07:50:13;65387.91;;;-139.23;100.00
21644;BME280;10983;51.982;9.226;2022-08-01T07:52:40;65387.91;;;-139.23;100.00
21644;BME280;10983;51.982;9.226;2022-08-01T07:55:10;65387.91;;;-139.23;100.00
21644;BME280;10983;51.982;9.226;2022-08-01T07:57:42;65387.91;;;-139.23;100.00
21644;BME280;10983;51.982;9.226;2022-08-01T08:00:10;65387.91;;;-139.23;100.00
21644;BME280;10983;51.982;9.226;2022-08-01T08:02:44;65387.91;;;-139.23;100.00
21644;BME280;10983;51.982;9.226;2022-08-01T08:05:14;65387.91;;;-139.23;100.00
21644;BME280;10983;51.982;9.226;2022-08-01T08:08:02;65387.91;;;-139.23;100.00
21644;BME280;10983;51.982;9.226;2022-08-01T08:10:33;65387.91;;;-139.23;100.00
21644;BME280;10983;51.982;9.226;2022-08-01T08:13:13;65387.91;;;-139.23;100.00
21644;BME280;10983;51.982;9.226;2022-08-01T08:15:46;65387.91;;;-139.23;100.00
21644;BME280;10983;51.982;9.226;2022-08-01T08:18:15;65387.91;;;-139.23;100.00
21644;BME280;10983;51.982;9.226;2022-08-01T08:20:43;65387.91;;;-139.23;100.00
21644;BME280;10983;51.982;9.226;2022-08-01T08:23:11;65387.91;;;-139.23;100.00
21644;BME280;10983;51.982;9.226;2022-08-01T08:26:10;65387.91;;;-139.23;100.00
21644;BME280;10983;51.982;9.226;2022-08-01T08:28:43;65387.91;;;-139.23;100.00
21644;BME280;10983;51.982;9.226;2022-08-01T08:31:13;65387.91;;;-139.23;100.00
21644;BME280;10983;51.982;9.226;2022-08-01T08:34:02;65387.91;;;-139.23;100.00
21644;BME280;10983;51.982;9.226;2022-08-01T08:36:30;65387.91;;;-139.23;100.00
21644;BME280;10983;51.982;9.226;2022-08-01T08:39:03;65387.91;;;-139.23;100.00
21644;BME280;10983;51.982;9.226;2022-08-01T08:41:34;65387.91;;;-139.23;100.00
21644;BME280;10983;51.982;9.226;2022-08-01T08:44:04;65387.91;;;-139.23;100.00
21644;BME280;10983;51.982;9.226;2022-08-01T08:46:40;65387.91;;;-139.23;100.00
21644;BME280;10983;51.982;9.226;2022-08-01T08:49:08;65387.91;;;-139.23;100.00
21644;BME280;10983;51.982;9.226;2022-08-01T08:51:39;65387.91;;;-139.23;100.00
21644;BME280;10983;51.982;9.226;2022-08-01T08:54:06;65387.91;;;-139.23;100.00
21644;BME280;10983;51.982;9.226;2022-08-01T08:56:38;65387.91;;;-139.23;100.00
21644;BME280;10983;51.982;9.226;2022-08-01T08:59:06;65387.91;;;-139.23;100.00
21644;BME280;10983;51.982;9.226;2022-08-01T09:01:34;65387.91;;;-139.23;100.00
21644;BME280;10983;51.982;9.226;2022-08-01T09:04:05;65387.91;;;-139.23;100.00
21644;BME280;10983;51.982;9.226;2022-08-01T09:06:32;65387.91;;;-139.23;100.00
21644;BME280;10983;51.982;9.226;2022-08-01T09:09:00;65387.91;;;-139.23;100.00
21644;BME280;10983;51.982;9.226;2022-08-01T09:11:28;65387.91;;;-139.23;100.00
21644;BME280;10983;51.982;9.226;2022-08-01T09:14:18;65387.91;;;-139.23;100.00
21644;BME280;10983;51.982;9.226;2022-08-01T09:16:59;65387.91;;;-139.23;100.00
21644;BME280;10983;51.982;9.226;2022-08-01T09:19:37;65387.91;;;-139.23;100.00
21644;BME280;10983;51.982;9.226;2022-08-01T09:22:08;65387.91;;;-139.23;100.00
21644;BME280;10983;51.982;9.226;2022-08-01T09:24:37;65387.91;;;-139.23;100.00
21644;BME280;10983;51.982;9.226;2022-08-01T09:27:19;65387.91;;;-139.23;100.00
21644;BME280;10983;51.982;9.226;2022-08-01T09:29:52;65387.91;;;-139.23;100.00
21644;BME280;10983;51.982;9.226;2022-08-01T09:32:28;65387.91;;;-139.23;100.00
21644;BME280;10983;51.982;9.226;2022-08-01T09:35:22;65387.91;;;-139.23;100.00
21644;BME280;10983;51.982;9.226;2022-08-01T09:38:12;65387.91;;;-139.23;100.00
21644;BME280;10983;51.982;9.226;2022-08-01T09:40:50;65387.91;;;-139.23;100.00
21644;BME280;10983;51.982;9.226;2022-08-01T09:43:19;65387.91;;;-139.23;100.00
21644;BME280;10983;51.982;9.226;2022-08-01T09:45:48;65387.91;;;-139.23;100.00
21644;BME280;10983;51.982;9.226;2022-08-01T09:48:19;65387.91;;;-139.23;100.00
21644;BME280;10983;51.982;9.226;2022-08-01T09:50:53;65387.91;;;-139.23;100.00
21644;BME280;10983;51.982;9.226;2022-08-01T09:53:45;65387.91;;;-139.23;100.00
21644;BME280;10983;51.982;9.226;2022-08-01T09:56:18;65387.91;;;-139.23;100.00
21644;BME280;10983;51.982;9.226;2022-08-01T09:58:53;65387.91;;;-139.23;100.00
21644;BME280;10983;51.982;9.226;2022-08-01T10:01:44;65387.91;;;-139.23;100.00
21644;BME280;10983;51.982;9.226;2022-08-01T10:04:13;65387.91;;;-139.23;100.00
21644;BME280;10983;51.982;9.226;2022-08-01T10:06:46;65387.91;;;-139.23;100.00
21644;BME280;10983;51.982;9.226;2022-08-01T10:09:27;65387.91;;;-139.23;100.00
21644;BME280;10983;51.982;9.226;2022-08-01T10:12:09;65387.91;;;-139.23;100.00
21644;BME280;10983;51.982;9.226;2022-08-01T10:14:42;65387.91;;;-139.23;100.00
21644;BME280;10983;51.982;9.226;2022-08-01T10:17:14;65387.91;;;-139.23;100.00
21644;BME280;10983;51.982;9.226;2022-08-01T10:19:45;65387.91;;;-139.23;100.00
21644;BME280;10983;51.982;9.226;2022-08-01T10:22:14;65387.91;;;-139.23;100.00
21644;BME280;10983;51.982;9.226;2022-08-01T10:24:44;65387.91;;;-139.23;100.00
21644;BME280;10983;51.982;9.226;2022-08-01T10:27:15;65387.91;;;-139.23;100.00
21644;BME280;10983;51.982;9.226;2022-08-01T10:30:04;65387.91;;;-139.23;100.00
21644;BME280;10983;51.982;9.226;2022-08-01T10:32:49;65387.91;;;-139.23;100.00
21644;BME280;10983;51.982;9.226;2022-08-01T10:35:20;65387.91;;;-139.23;100.00
21644;BME280;10983;51.982;9.226;2022-08-01T10:38:08;65387.91;;;-139.23;100.00
21644;BME280;10983;51.982;9.226;2022-08-01T10:40:39;65387.91;;;-139.23;100.00
21644;BME280;10983;51.982;9.226;2022-08-01T10:43:09;65387.91;;;-139.23;100.00
21644;BME280;10983;51.982;9.226;2022-08-01T10:45:37;65387.91;;;-139.23;100.00
21644;BME280;10983;51.982;9.226;2022-08-01T10:48:14;65387.91;;;-139.23;100.00
21644;BME280;10983;51.982;9.226;2022-08-01T10:50:48;65387.91;;;-139.23;100.00
21644;BME280;10983;51.982;9.226;2022-08-01T10:53:17;65387.91;;;-139.23;100.00
21644;BME280;10983;51.982;9.226;2022-08-01T10:55:52;65387.91;;;-139.23;100.00
21644;BME280;10983;51.982;9.226;2022-08-01T10:58:22;65387.91;;;-139.23;100.00
21644;BME280;10983;51.982;9.226;2022-08-01T11:01:21;65387.91;;;-139.23;100.00
21644;BME280;10983;51.982;9.226;2022-08-01T11:04:03;65387.91;;;-139.23;100.00
21644;BME280;10983;51.982;9.226;2022-08-01T11:06:40;65387.91;;;-139.23;100.00
21644;BME280;10983;51.982;9.226;2022-08-01T11:09:39;65387.91;;;-139.23;100.00
21644;BME280;10983;51.982;9.226;2022-08-01T11:12:09;65387.91;;;-139.23;100.00
21644;BME280;10983;51.982;9.226;2022-08-01T11:15:20;65387.91;;;-139.23;100.00
21644;BME280;10983;51.982;9.226;2022-08-01T11:17:59;65387.91;;;-139.23;100.00
21644;BME280;10983;51.982;9.226;2022-08-01T11:20:35;65387.91;;;-139.23;100.00
21644;BME280;10983;51.982;9.226;2022-08-01T11:23:16;65387.91;;;-139.23;100.00
21644;BME280;10983;51.982;9.226;2022-08-01T11:26:11;65387.91;;;-139.23;100.00
21644;BME280;10983;51.982;9.226;2022-08-01T11:28:40;65387.91;;;-139.23;100.00
21644;BME280;10983;51.982;9.226;2022-08-01T11:31:31;65387.91;;;-139.23;100.00
21644;BME280;10983;51.982;9.226;2022-08-01T11:34:03;65387.91;;;-139.23;100.00
21644;BME280;10983;51.982;9.226;2022-08-01T11:36:32;65387.91;;;-139.23;100.00
21644;BME280;10983;51.982;9.226;2022-08-01T11:39:20;65387.91;;;-139.23;100.00
21644;BME280;10983;51.982;9.226;2022-08-01T11:41:48;65387.91;;;-139.23;100.00
21644;BME280;10983;51.982;9.226;2022-08-01T11:44:21;65387.91;;;-139.23;100.00
21644;BME280;10983;51.982;9.226;2022-08-01T11:47:00;65387.91;;;-139.23;100.00
21644;BME280;10983;51.982;9.226;2022-08-01T11:49:46;65387.91;;;-139.23;100.00
21644;BME280;10983;51.982;9.226;2022-08-01T11:52:18;65387.91;;;-139.23;100.00
21644;BME280;10983;51.982;9.226;2022-08-01T11:54:50;65387.91;;;-139.23;100.00
21644;BME280;10983;51.982;9.226;2022-08-01T11:57:22;65387.91;;;-139.23;100.00
21644;BME280;10983;51.982;9.226;2022-08-01T12:00:02;65387.91;;;-139.23;100.00
21644;BME280;10983;51.982;9.226;2022-08-01T12:02:34;65387.91;;;-139.23;100.00
21644;BME280;10983;51.982;9.226;2022-08-01T12:05:04;65387.91;;;-139.23;100.00
21644;BME280;10983;51.982;9.226;2022-08-01T12:07:36;65387.91;;;-139.23;100.00
21644;BME280;10983;51.982;9.226;2022-08-01T12:10:05;65387.91;;;-139.23;100.00
21644;BME280;10983;51.982;9.226;2022-08-01T12:12:35;65387.91;;;-139.23;100.00
21644;BME280;10983;51.982;9.226;2022-08-01T12:15:05;65387.91;;;-139.23;100.00
21644;BME280;10983;51.982;9.226;2022-08-01T12:17:37;65387.91;;;-139.23;100.00
21644;BME280;10983;51.982;9.226;2022-08-01T12:20:11;65387.91;;;-139.23;100.00
21644;BME280;10983;51.982;9.226;2022-08-01T12:22:53;65387.91;;;-139.23;100.00
21644;BME280;10983;51.982;9.226;2022-08-01T12:25:28;65387.91;;;-139.23;100.00
21644;BME280;10983;51.982;9.226;2022-08-01T12:27:59;65387.91;;;-139.23;100.00
21644;BME280;10983;51.982;9.226;2022-08-01T12:30:28;65387.91;;;-139.23;100.00
21644;BME280;10983;51.982;9.226;2022-08-01T12:33:05;65387.91;;;-139.23;100.00
21644;BME280;10983;51.982;9.226;2022-08-01T12:35:34;65387.91;;;-139.23;100.00
21644;BME280;10983;51.982;9.226;2022-08-01T12:38:12;65387.91;;;-139.23;100.00
21644;BME280;10983;51.982;9.226;2022-08-01T12:40:42;65387.91;;;-139.23;100.00
21644;BME280;10983;51.982;9.226;2022-08-01T12:43:15;65387.91;;;-139.23;100.00
21644;BME280;10983;51.982;9.226;2022-08-01T12:45:55;65387.91;;;-139.23;100.00
21644;BME280;10983;51.982;9.226;2022-08-01T12:48:24;65387.91;;;-139.23;100.00
21644;BME280;10983;51.982;9.226;2022-08-01T12:51:00;65387.91;;;-139.23;100.00
21644;BME280;10983;51.982;9.226;2022-08-01T12:53:34;65387.91;;;-139.23;100.00
21644;BME280;10983;51.982;9.226;2022-08-01T12:56:07;65387.91;;;-139.23;100.00
21644;BME280;10983;51.982;9.226;2022-08-01T12:58:36;65387.91;;;-139.23;100.00
21644;BME280;10983;51.982;9.226;2022-08-01T13:01:08;65387.91;;;-139.23;100.00
21644;BME280;10983;51.982;9.226;2022-08-01T13:03:37;65387.91;;;-139.23;100.00